Time;durP1;ratioP1;P1;durP2;ratioP2;P2;SDS_P1;SDS_P2;PMS_P1;PMS_P2;Temp;Humidity;BMP_temperature;BMP_pressure;BME280_temperature;BME280_humidity;BME280_pressure;Samples;Min_cycle;Max_cycle;Signal;HPM_P1;HPM_P2
2022/10/26 00:01:06;;;;;;;3.77;3.47;;;23.40;69.50;;;;;;5101392;28;20453;-73
2022/10/26 00:03:35;;;;;;;4.30;3.30;;;23.40;69.50;;;;;;5105729;28;20446;-73
2022/10/26 00:06:05;;;;;;;3.60;3.33;;;23.40;69.50;;;;;;5101291;28;20506;-73
2022/10/26 00:08:33;;;;;;;3.30;3.10;;;23.40;69.50;;;;;;5100230;28;20454;-73
2022/10/26 00:11:01;;;;;;;4.10;3.70;;;23.40;69.50;;;;;;5100178;28;20478;-73
2022/10/26 00:13:31;;;;;;;5.27;3.53;;;23.40;69.50;;;;;;5105207;28;20488;-74
2022/10/26 00:15:59;;;;;;;3.57;3.27;;;23.40;69.50;;;;;;5103897;28;20449;-73
2022/10/26 00:18:32;;;;;;;3.67;3.37;;;23.40;69.50;;;;;;5112492;28;20445;-73
2022/10/26 00:21:03;;;;;;;4.17;3.63;;;23.40;69.50;;;;;;5105188;28;20451;-73
2022/10/26 00:23:32;;;;;;;3.40;3.20;;;23.40;69.50;;;;;;5097506;28;20453;-73
2022/10/26 00:26:00;;;;;;;3.10;2.90;;;23.40;69.50;;;;;;5094581;28;20453;-73
2022/10/26 00:28:29;;;;;;;4.03;3.73;;;23.40;69.50;;;;;;5094365;28;21008;-73
2022/10/26 00:31:02;;;;;;;3.47;3.17;;;23.40;69.50;;;;;;5098826;28;20539;-73
2022/10/26 00:33:30;;;;;;;3.10;2.90;;;23.40;69.50;;;;;;5099796;28;20457;-73
2022/10/26 00:35:59;;;;;;;3.57;3.27;;;23.40;69.50;;;;;;5104673;28;20493;-73
2022/10/26 00:38:27;;;;;;;3.17;2.93;;;23.30;69.50;;;;;;5105406;28;20468;-73
2022/10/26 00:40:55;;;;;;;3.20;2.90;;;23.40;69.40;;;;;;5112582;28;20434;-73
2022/10/26 00:43:36;;;;;;;4.30;3.43;;;23.30;69.40;;;;;;5104326;28;20492;-73
2022/10/26 00:46:12;;;;;;;3.80;3.50;;;23.30;69.40;;;;;;5097959;28;20468;-74
2022/10/26 00:48:44;;;;;;;3.40;3.10;;;23.30;69.40;;;;;;5112914;28;20454;-74
2022/10/26 00:51:20;;;;;;;3.20;3.00;;;23.40;69.50;;;;;;5105382;28;20470;-73
2022/10/26 00:53:48;;;;;;;3.00;2.80;;;23.30;69.40;;;;;;5091979;28;20427;-73
2022/10/26 00:56:17;;;;;;;2.73;2.53;;;23.40;69.40;;;;;;5092439;28;20452;-73
2022/10/26 00:58:46;;;;;;;3.80;3.30;;;23.30;69.40;;;;;;5092318;28;20543;-73
2022/10/26 01:01:16;;;;;;;3.53;3.20;;;23.30;69.40;;;;;;5091685;28;20796;-73
2022/10/26 01:03:45;;;;;;;3.00;2.80;;;23.30;69.40;;;;;;5100756;28;20493;-76
2022/10/26 01:06:14;;;;;;;3.20;2.90;;;23.30;69.40;;;;;;5102880;28;20461;-73
2022/10/26 01:08:43;;;;;;;2.93;2.57;;;23.30;69.40;;;;;;5098828;28;20855;-73
2022/10/26 01:11:13;;;;;;;3.07;2.87;;;23.30;69.40;;;;;;5100321;28;20475;-73
2022/10/26 01:13:43;;;;;;;2.03;1.93;;;23.30;69.30;;;;;;5090239;28;21249;-74
2022/10/26 01:16:35;;;;;;;3.10;2.90;;;23.30;69.40;;;;;;5099045;28;20460;-74
2022/10/26 01:19:44;;;;;;;3.33;3.03;;;23.30;69.40;;;;;;5103088;28;20498;-73
2022/10/26 01:22:16;;;;;;;2.83;2.63;;;23.30;69.40;;;;;;5100908;28;20458;-73
2022/10/26 01:25:03;;;;;;;3.50;3.20;;;23.30;69.40;;;;;;5094220;28;20809;-73
2022/10/26 01:27:34;;;;;;;2.80;2.60;;;23.30;69.40;;;;;;5095983;28;20492;-73
2022/10/26 01:30:33;;;;;;;3.67;3.17;;;23.30;69.40;;;;;;5094047;28;20442;-73
2022/10/26 01:33:15;;;;;;;2.63;2.53;;;23.30;69.40;;;;;;5109872;28;20462;-73
2022/10/26 01:35:53;;;;;;;4.03;3.73;;;23.30;69.40;;;;;;5115173;28;20911;-73
2022/10/26 01:38:31;;;;;;;2.40;2.20;;;23.30;69.40;;;;;;5115888;28;20425;-73
2022/10/26 01:41:05;;;;;;;2.70;2.50;;;23.30;69.40;;;;;;5113230;28;20508;-73
2022/10/26 01:43:36;;;;;;;3.30;3.07;;;23.30;69.40;;;;;;5114539;28;20448;-74
2022/10/26 01:46:07;;;;;;;3.03;2.83;;;23.30;69.40;;;;;;5113755;28;20482;-74
2022/10/26 01:48:37;;;;;;;3.10;2.70;;;23.30;69.40;;;;;;5114377;28;20441;-73
2022/10/26 01:51:07;;;;;;;2.70;2.50;;;23.30;69.40;;;;;;5112161;28;20469;-73
2022/10/26 01:53:35;;;;;;;4.07;2.50;;;23.30;69.40;;;;;;5109972;28;20450;-73
2022/10/26 01:56:04;;;;;;;3.00;2.80;;;23.30;69.40;;;;;;5115209;28;20458;-73
2022/10/26 01:58:58;;;;;;;2.50;2.40;;;23.30;69.40;;;;;;5105753;28;20451;-73
2022/10/26 02:01:52;;;;;;;3.07;2.57;;;23.30;69.40;;;;;;5110212;28;20453;-73
2022/10/26 02:04:35;;;;;;;3.20;3.00;;;23.30;69.30;;;;;;5101848;28;20456;-73
2022/10/26 02:07:08;;;;;;;2.90;2.70;;;23.30;69.40;;;;;;5114024;28;20450;-73
2022/10/26 02:09:46;;;;;;;3.20;2.93;;;23.30;69.40;;;;;;5109489;28;20549;-73
2022/10/26 02:12:25;;;;;;;3.03;2.73;;;23.30;69.40;;;;;;5093899;28;20492;-73
2022/10/26 02:15:04;;;;;;;2.80;2.60;;;23.30;69.40;;;;;;5106540;28;20453;-73
2022/10/26 02:17:40;;;;;;;3.00;2.80;;;23.30;69.40;;;;;;5114400;28;21052;-73
2022/10/26 02:20:13;;;;;;;4.53;3.40;;;23.30;69.40;;;;;;5115009;28;20443;-73
2022/10/26 02:22:45;;;;;;;3.00;2.77;;;23.30;69.40;;;;;;5102467;28;21175;-73
2022/10/26 02:25:18;;;;;;;2.90;2.70;;;23.30;69.40;;;;;;5095025;28;20429;-73
2022/10/26 02:27:53;;;;;;;2.53;2.33;;;23.30;69.40;;;;;;5106235;28;20456;-73
2022/10/26 02:30:22;;;;;;;2.43;2.23;;;23.30;69.40;;;;;;5106451;28;20446;-73
2022/10/26 02:32:54;;;;;;;2.73;2.53;;;23.30;69.40;;;;;;5104821;28;20471;-73
2022/10/26 02:35:25;;;;;;;2.93;2.73;;;23.30;69.40;;;;;;5106477;28;20907;-73
2022/10/26 02:37:56;;;;;;;3.27;2.97;;;23.30;69.40;;;;;;5098250;27;20454;-73
2022/10/26 02:40:27;;;;;;;2.97;2.70;;;23.30;69.40;;;;;;5092191;28;20832;-73
2022/10/26 02:42:59;;;;;;;2.57;2.37;;;23.30;69.40;;;;;;5101491;28;20449;-73
2022/10/26 02:45:33;;;;;;;2.90;2.70;;;23.30;69.40;;;;;;5108360;28;20467;-73
2022/10/26 02:48:02;;;;;;;3.00;2.80;;;23.30;69.30;;;;;;5111537;28;20520;-73
2022/10/26 02:50:38;;;;;;;3.23;2.80;;;23.30;69.40;;;;;;5104854;28;20463;-73
2022/10/26 02:53:13;;;;;;;2.80;2.60;;;23.20;69.40;;;;;;5094521;28;20477;-73
2022/10/26 02:55:48;;;;;;;3.13;2.83;;;23.20;69.30;;;;;;5093986;28;20430;-73
2022/10/26 02:58:20;;;;;;;2.43;2.23;;;23.20;69.40;;;;;;5108079;28;21176;-73
2022/10/26 03:00:50;;;;;;;2.70;2.40;;;23.20;69.30;;;;;;5110813;28;20446;-73
2022/10/26 03:03:20;;;;;;;2.57;2.37;;;23.20;69.40;;;;;;5097841;28;20482;-73
2022/10/26 03:05:48;;;;;;;2.83;2.60;;;23.20;69.40;;;;;;5094221;28;20425;-73
2022/10/26 03:08:17;;;;;;;2.50;2.30;;;23.20;69.30;;;;;;5103210;28;20437;-74
2022/10/26 03:10:46;;;;;;;2.97;2.40;;;23.20;69.30;;;;;;5092266;28;20445;-73
2022/10/26 03:13:14;;;;;;;2.80;2.60;;;23.20;69.30;;;;;;5111337;27;20979;-73
2022/10/26 03:15:42;;;;;;;1.90;1.80;;;23.20;69.30;;;;;;5113719;28;20505;-73
2022/10/26 03:18:10;;;;;;;2.67;2.47;;;23.20;69.30;;;;;;5114093;28;20430;-73
2022/10/26 03:20:40;;;;;;;2.30;2.13;;;23.20;69.30;;;;;;5113112;28;20899;-74
2022/10/26 03:23:08;;;;;;;2.37;2.17;;;23.20;69.30;;;;;;5106223;28;20461;-73
2022/10/26 03:25:36;;;;;;;2.70;2.50;;;23.20;69.30;;;;;;5106074;28;20458;-73
2022/10/26 03:28:06;;;;;;;3.90;2.23;;;23.20;69.30;;;;;;5092764;28;20849;-73
2022/10/26 03:30:34;;;;;;;2.53;2.33;;;23.20;69.30;;;;;;5103375;28;20929;-73
2022/10/26 03:33:02;;;;;;;2.10;2.00;;;23.20;69.30;;;;;;5105528;28;20478;-73
2022/10/26 03:35:30;;;;;;;2.40;2.30;;;23.20;69.30;;;;;;5112899;28;20524;-73
2022/10/26 03:38:00;;;;;;;2.40;2.20;;;23.20;69.30;;;;;;5113845;28;20444;-73
2022/10/26 03:40:28;;;;;;;2.20;2.10;;;23.20;69.30;;;;;;5113105;28;20462;-73
2022/10/26 03:42:56;;;;;;;2.47;2.27;;;23.20;69.30;;;;;;5101603;28;20465;-73
2022/10/26 03:45:24;;;;;;;2.37;2.17;;;23.20;69.20;;;;;;5112382;28;20982;-73
2022/10/26 03:47:52;;;;;;;2.90;2.70;;;23.20;69.20;;;;;;5113387;28;20445;-73
2022/10/26 03:50:22;;;;;;;3.00;2.80;;;23.20;69.20;;;;;;5102095;28;20459;-73
2022/10/26 03:52:50;;;;;;;2.00;1.90;;;23.20;69.20;;;;;;5097400;28;20926;-73
2022/10/26 03:55:20;;;;;;;2.00;1.77;;;23.20;69.20;;;;;;5093645;28;20516;-73
2022/10/26 03:57:48;;;;;;;2.27;2.07;;;23.20;69.20;;;;;;5092348;28;20449;-73
2022/10/26 04:00:18;;;;;;;2.30;2.10;;;23.20;69.20;;;;;;5109510;28;20962;-73
2022/10/26 04:02:53;;;;;;;2.50;2.23;;;23.20;69.20;;;;;;5092848;28;20550;-73
2022/10/26 04:05:22;;;;;;;1.90;1.80;;;23.20;69.20;;;;;;5095063;28;20441;-73
2022/10/26 04:07:53;;;;;;;3.20;2.20;;;23.10;69.10;;;;;;5095566;28;20462;-73
2022/10/26 04:10:23;;;;;;;3.80;2.80;;;23.20;69.10;;;;;;5099469;28;20445;-73
2022/10/26 04:12:52;;;;;;;2.00;1.90;;;23.10;69.10;;;;;;5097020;28;20972;-73
2022/10/26 04:15:21;;;;;;;2.30;2.20;;;23.10;69.10;;;;;;5092498;28;20451;-73
2022/10/26 04:17:54;;;;;;;2.67;2.47;;;23.10;69.10;;;;;;5096729;28;20488;-73
2022/10/26 04:20:22;;;;;;;2.07;1.93;;;23.10;69.10;;;;;;5098302;28;20481;-72
2022/10/26 04:22:57;;;;;;;2.40;2.20;;;23.10;69.10;;;;;;5092558;28;20454;-72
2022/10/26 04:25:28;;;;;;;2.30;2.10;;;23.10;69.10;;;;;;5097124;28;20438;-72
2022/10/26 04:28:00;;;;;;;3.43;2.13;;;23.10;69.10;;;;;;5094079;28;20465;-71
2022/10/26 04:30:28;;;;;;;2.03;1.93;;;23.10;69.10;;;;;;5094142;28;20443;-72
2022/10/26 04:32:56;;;;;;;2.53;2.33;;;23.10;69.10;;;;;;5098668;28;20475;-72
2022/10/26 04:35:24;;;;;;;2.07;1.97;;;23.10;69.10;;;;;;5092498;28;20464;-72
2022/10/26 04:37:58;;;;;;;2.53;2.33;;;23.10;69.10;;;;;;5090957;28;20442;-72
2022/10/26 04:40:28;;;;;;;2.23;2.13;;;23.10;69.10;;;;;;5098680;28;20454;-73
2022/10/26 04:42:56;;;;;;;2.90;2.70;;;23.10;69.10;;;;;;5091992;28;20450;-73
2022/10/26 04:45:26;;;;;;;2.30;2.20;;;23.10;69.10;;;;;;5098982;28;21361;-73
2022/10/26 04:48:03;;;;;;;2.20;2.10;;;23.10;69.00;;;;;;5097027;28;20463;-73
2022/10/26 04:50:32;;;;;;;2.50;2.30;;;23.10;69.10;;;;;;5097259;28;20459;-77
2022/10/26 04:53:03;;;;;;;2.40;2.27;;;23.10;69.10;;;;;;5097072;28;20991;-76
2022/10/26 04:55:33;;;;;;;3.17;2.40;;;23.10;69.40;;;;;;5094328;28;20532;-76
2022/10/26 04:58:01;;;;;;;2.40;2.20;;;23.10;69.40;;;;;;5098608;28;20476;-75
2022/10/26 05:00:31;;;;;;;2.60;2.40;;;23.10;69.50;;;;;;5095507;28;21005;-75
2022/10/26 05:03:00;;;;;;;2.70;2.33;;;23.10;69.70;;;;;;5099148;28;20485;-77
2022/10/26 05:05:28;;;;;;;2.90;2.70;;;23.10;69.80;;;;;;5100046;28;20452;-76
2022/10/26 05:07:56;;;;;;;2.30;2.10;;;23.10;69.80;;;;;;5108027;28;20453;-75
2022/10/26 05:10:25;;;;;;;3.40;2.40;;;23.10;70.00;;;;;;5102705;28;20451;-75
2022/10/26 05:12:58;;;;;;;4.67;3.03;;;23.10;70.10;;;;;;5099575;28;20577;-77
2022/10/26 05:15:27;;;;;;;3.83;3.03;;;23.10;70.30;;;;;;5096290;28;20478;-76
2022/10/26 05:17:56;;;;;;;2.43;2.23;;;23.10;70.40;;;;;;5103198;28;20985;-75
2022/10/26 05:20:28;;;;;;;5.17;2.77;;;23.10;70.50;;;;;;5109254;28;20461;-75
2022/10/26 05:22:56;;;;;;;2.70;2.40;;;23.10;70.50;;;;;;5103615;28;20492;-75
2022/10/26 05:25:24;;;;;;;2.30;2.10;;;23.10;70.60;;;;;;5102567;28;20454;-75
2022/10/26 05:27:58;;;;;;;2.53;2.33;;;23.10;70.50;;;;;;5101215;28;20456;-75
2022/10/26 05:30:27;;;;;;;2.90;2.70;;;23.10;70.60;;;;;;5101907;28;20452;-75
2022/10/26 05:32:55;;;;;;;4.13;2.50;;;23.10;70.60;;;;;;5095678;28;20470;-75
2022/10/26 05:35:24;;;;;;;2.93;2.73;;;23.10;70.50;;;;;;5097951;28;20459;-75
2022/10/26 05:37:53;;;;;;;4.43;2.30;;;23.10;70.50;;;;;;5097383;28;20807;-75
2022/10/26 05:40:21;;;;;;;2.80;2.50;;;23.10;70.50;;;;;;5101750;28;20481;-75
2022/10/26 05:42:50;;;;;;;4.80;2.47;;;23.10;70.60;;;;;;5096181;28;20465;-75
2022/10/26 05:45:20;;;;;;;3.87;2.40;;;23.10;70.50;;;;;;5097577;28;20479;-75
2022/10/26 05:47:48;;;;;;;5.00;2.33;;;23.10;70.50;;;;;;5098770;28;20469;-75
2022/10/26 05:50:17;;;;;;;3.30;2.97;;;23.10;70.50;;;;;;5104125;28;20979;-76
2022/10/26 05:52:47;;;;;;;2.63;2.33;;;23.10;70.50;;;;;;5103685;27;20456;-75
2022/10/26 05:55:17;;;;;;;4.80;3.10;;;23.10;70.60;;;;;;5108056;28;20950;-75
2022/10/26 05:57:45;;;;;;;4.80;3.20;;;23.10;70.50;;;;;;5100933;28;20469;-75
2022/10/26 06:00:22;;;;;;;3.97;2.90;;;23.10;70.50;;;;;;5096949;28;20463;-75
2022/10/26 06:03:13;;;;;;;4.10;3.30;;;23.10;70.50;;;;;;5094894;28;21026;-75
2022/10/26 06:05:51;;;;;;;3.43;3.10;;;23.10;70.50;;;;;;5093060;28;20435;-75
2022/10/26 06:08:20;;;;;;;3.83;3.10;;;23.10;70.50;;;;;;5094037;28;20460;-75
2022/10/26 06:10:48;;;;;;;5.60;2.90;;;23.10;70.50;;;;;;5093476;28;20475;-75
2022/10/26 06:13:17;;;;;;;3.57;3.27;;;23.10;70.50;;;;;;5096225;28;20497;-75
2022/10/26 06:15:58;;;;;;;7.50;2.87;;;23.10;70.50;;;;;;5097117;28;20460;-75
2022/10/26 06:18:36;;;;;;;2.70;2.50;;;23.10;70.50;;;;;;5096079;28;20465;-75
2022/10/26 06:21:15;;;;;;;4.93;3.00;;;23.10;70.50;;;;;;5105301;28;20450;-75
2022/10/26 06:23:50;;;;;;;2.90;2.60;;;23.10;70.50;;;;;;5104468;28;20451;-76
2022/10/26 06:26:28;;;;;;;3.30;2.50;;;23.10;70.50;;;;;;5098764;28;20441;-75
2022/10/26 06:29:09;;;;;;;4.10;3.13;;;23.10;70.50;;;;;;5098137;28;20455;-75
2022/10/26 06:31:39;;;;;;;4.80;3.20;;;23.10;70.50;;;;;;5094326;28;20454;-73
2022/10/26 06:34:10;;;;;;;5.70;3.23;;;23.10;71.00;;;;;;5098830;28;20469;-75
2022/10/26 06:36:41;;;;;;;4.97;3.10;;;23.10;71.00;;;;;;5103156;28;20453;-75
2022/10/26 06:39:12;;;;;;;3.63;3.33;;;23.10;70.90;;;;;;5102912;28;20441;-75
2022/10/26 06:41:40;;;;;;;6.57;3.40;;;23.10;70.90;;;;;;5104199;28;20907;-74
2022/10/26 06:44:19;;;;;;;2.53;2.23;;;23.10;70.80;;;;;;5098407;28;20500;-74
2022/10/26 06:46:54;;;;;;;2.83;2.63;;;23.10;70.90;;;;;;5098960;28;20463;-74
2022/10/26 06:49:30;;;;;;;2.70;2.50;;;23.10;70.80;;;;;;5101935;28;20450;-74
2022/10/26 06:52:01;;;;;;;7.40;3.30;;;23.10;70.90;;;;;;5104015;28;20963;-75
2022/10/26 06:54:40;;;;;;;10.43;2.80;;;23.10;70.90;;;;;;5097920;28;20561;-79
2022/10/26 06:57:10;;;;;;;4.27;3.07;;;23.20;70.80;;;;;;5096604;28;20539;-78
2022/10/26 06:59:43;;;;;;;3.30;2.57;;;23.20;71.00;;;;;;5104556;28;20541;-80
2022/10/26 07:02:13;;;;;;;3.87;3.10;;;23.20;71.00;;;;;;5102530;28;20436;-78
2022/10/26 07:04:42;;;;;;;4.57;2.80;;;23.20;71.00;;;;;;5102486;28;20452;-78
2022/10/26 07:07:12;;;;;;;4.77;3.43;;;23.20;71.00;;;;;;5097264;28;20454;-80
2022/10/26 07:09:40;;;;;;;3.73;2.80;;;23.30;71.00;;;;;;5097830;28;21072;-79
2022/10/26 07:12:09;;;;;;;4.20;3.00;;;23.30;71.00;;;;;;5104065;28;20978;-80
2022/10/26 07:14:37;;;;;;;3.50;2.70;;;23.30;71.00;;;;;;5097838;28;20488;-80
2022/10/26 07:17:06;;;;;;;4.50;3.43;;;23.30;71.00;;;;;;5102520;28;20880;-78
2022/10/26 07:19:35;;;;;;;3.63;2.80;;;23.30;71.00;;;;;;5098047;28;20936;-78
2022/10/26 07:22:03;;;;;;;2.70;2.50;;;23.30;71.00;;;;;;5095433;28;20458;-77
2022/10/26 07:24:32;;;;;;;5.37;2.77;;;23.30;71.00;;;;;;5098826;28;20451;-82
2022/10/26 07:27:00;;;;;;;2.20;2.00;;;23.40;71.00;;;;;;5101418;28;20454;-80
2022/10/26 07:29:28;;;;;;;3.90;2.53;;;23.40;70.90;;;;;;5103086;28;20446;-79
2022/10/26 07:31:56;;;;;;;3.47;2.60;;;23.40;70.90;;;;;;5103413;28;20645;-80
2022/10/26 07:34:24;;;;;;;3.47;2.57;;;23.40;71.00;;;;;;5101342;28;20525;-80
2022/10/26 07:36:54;;;;;;;10.00;3.03;;;23.40;70.90;;;;;;5094493;28;20456;-83
2022/10/26 07:39:22;;;;;;;2.90;2.60;;;23.40;70.90;;;;;;5097932;28;20945;-76
2022/10/26 07:41:50;;;;;;;5.27;2.63;;;23.40;70.90;;;;;;5100759;28;20454;-73
2022/10/26 07:44:18;;;;;;;2.67;2.47;;;23.50;71.10;;;;;;5094490;28;20539;-73
2022/10/26 07:46:46;;;;;;;3.50;3.13;;;23.50;71.00;;;;;;5097311;28;20463;-74
2022/10/26 07:49:14;;;;;;;3.93;2.70;;;23.50;71.00;;;;;;5094553;28;20488;-73
2022/10/26 07:51:46;;;;;;;4.70;2.87;;;23.50;70.80;;;;;;5090837;28;20446;-73
2022/10/26 07:54:16;;;;;;;2.73;2.50;;;23.50;70.70;;;;;;5094258;28;20470;-74
2022/10/26 07:56:44;;;;;;;3.30;2.37;;;23.50;70.70;;;;;;5091610;28;20450;-74
2022/10/26 07:59:15;;;;;;;2.97;2.73;;;23.50;70.50;;;;;;5091435;28;20941;-74
2022/10/26 08:01:44;;;;;;;3.20;2.47;;;23.50;70.60;;;;;;5094949;28;20558;-74
2022/10/26 08:04:12;;;;;;;2.87;2.60;;;23.60;70.60;;;;;;5091235;28;20440;-75
2022/10/26 08:06:40;;;;;;;7.17;3.87;;;23.60;70.50;;;;;;5094619;28;20457;-75
2022/10/26 08:09:09;;;;;;;2.40;2.07;;;23.60;70.50;;;;;;5097571;28;20810;-73
2022/10/26 08:11:38;;;;;;;3.33;2.53;;;23.60;70.50;;;;;;5096827;28;20828;-72
2022/10/26 08:14:06;;;;;;;2.80;2.60;;;23.60;70.50;;;;;;5094292;28;20492;-70
2022/10/26 08:16:34;;;;;;;4.53;2.80;;;23.60;70.40;;;;;;5091155;28;20531;-70
2022/10/26 08:19:02;;;;;;;2.60;2.40;;;23.60;70.20;;;;;;5098434;28;20449;-71
2022/10/26 08:21:31;;;;;;;2.80;2.60;;;23.60;70.10;;;;;;5096834;28;20542;-70
2022/10/26 08:24:08;;;;;;;3.90;2.93;;;23.60;70.00;;;;;;5090502;28;20450;-71
2022/10/26 08:26:38;;;;;;;4.30;2.90;;;23.60;70.00;;;;;;5103534;28;20455;-71
2022/10/26 08:29:06;;;;;;;2.93;2.67;;;23.60;69.90;;;;;;5094992;28;20456;-71
2022/10/26 08:31:34;;;;;;;3.80;2.60;;;23.60;69.80;;;;;;5103962;28;20473;-70
2022/10/26 08:34:03;;;;;;;2.70;2.50;;;23.60;69.80;;;;;;5100267;28;20684;-71
2022/10/26 08:36:31;;;;;;;3.70;2.80;;;23.60;69.70;;;;;;5088642;28;20475;-70
2022/10/26 08:38:59;;;;;;;2.60;2.27;;;23.60;69.60;;;;;;5090104;28;20453;-70
2022/10/26 08:41:40;;;;;;;3.17;2.87;;;23.60;69.60;;;;;;5110225;28;20430;-71
2022/10/26 08:44:21;;;;;;;5.20;2.50;;;23.60;69.60;;;;;;5089245;28;20833;-70
2022/10/26 08:46:53;;;;;;;2.83;2.50;;;23.60;69.60;;;;;;5090873;28;20928;-70
2022/10/26 08:49:26;;;;;;;2.93;2.73;;;23.60;69.50;;;;;;5111413;28;20921;-71
2022/10/26 08:51:59;;;;;;;3.03;1.97;;;23.60;69.50;;;;;;5112136;28;20527;-71
2022/10/26 08:54:36;;;;;;;3.90;2.77;;;23.60;69.40;;;;;;5112255;28;20441;-70
2022/10/26 08:57:21;;;;;;;2.80;2.57;;;23.60;69.40;;;;;;5111761;28;20509;-70
2022/10/26 08:59:55;;;;;;;6.87;5.20;;;23.60;69.40;;;;;;5101151;28;20459;-70
2022/10/26 09:02:24;;;;;;;3.20;2.90;;;23.60;69.40;;;;;;5100007;28;20468;-70
2022/10/26 09:04:54;;;;;;;2.90;2.00;;;23.60;69.40;;;;;;5091593;28;20878;-71
2022/10/26 09:07:36;;;;;;;2.60;2.40;;;23.60;69.40;;;;;;5090861;28;20824;-70
2022/10/26 09:10:16;;;;;;;2.20;2.00;;;23.60;69.40;;;;;;5090904;28;20552;-71
2022/10/26 09:12:52;;;;;;;2.60;2.40;;;23.60;69.40;;;;;;5091823;28;20560;-70
2022/10/26 09:15:28;;;;;;;2.63;2.40;;;23.50;69.40;;;;;;5093294;28;20478;-71
2022/10/26 09:18:07;;;;;;;3.00;2.67;;;23.50;69.40;;;;;;5101130;28;20459;-70
2022/10/26 09:20:49;;;;;;;2.60;2.40;;;23.50;69.40;;;;;;5112364;28;20443;-71
2022/10/26 09:23:30;;;;;;;4.00;2.63;;;23.50;69.40;;;;;;5097131;28;20806;-70
2022/10/26 09:26:00;;;;;;;3.57;2.90;;;23.50;69.40;;;;;;5091933;28;20544;-70
2022/10/26 09:28:34;;;;;;;2.67;2.47;;;23.50;69.40;;;;;;5106312;28;20457;-70
2022/10/26 09:31:04;;;;;;;2.53;2.33;;;23.50;69.40;;;;;;5111793;28;20484;-71
2022/10/26 09:33:36;;;;;;;2.53;2.33;;;23.50;69.40;;;;;;5091335;28;20870;-71
2022/10/26 09:36:08;;;;;;;2.70;2.50;;;23.50;69.40;;;;;;5096924;28;20460;-70
2022/10/26 09:38:46;;;;;;;2.67;2.47;;;23.40;69.40;;;;;;5111144;28;20881;-70
2022/10/26 09:41:21;;;;;;;3.50;2.70;;;23.40;69.50;;;;;;5103516;28;20549;-70
2022/10/26 09:43:56;;;;;;;2.80;2.60;;;23.40;69.50;;;;;;5096285;28;20778;-71
2022/10/26 09:46:29;;;;;;;2.90;2.70;;;23.40;69.50;;;;;;5102244;28;20457;-71
2022/10/26 09:48:59;;;;;;;3.17;2.87;;;23.40;69.40;;;;;;5091023;28;20463;-70
2022/10/26 09:51:28;;;;;;;2.93;2.10;;;23.40;69.40;;;;;;5103232;28;20467;-71
2022/10/26 09:53:57;;;;;;;2.03;1.70;;;23.40;69.40;;;;;;5102664;28;20463;-70
2022/10/26 09:56:27;;;;;;;2.17;2.07;;;23.50;69.40;;;;;;5106199;28;21073;-70
2022/10/26 09:59:03;;;;;;;2.60;2.40;;;23.50;69.30;;;;;;5112898;28;20817;-70
2022/10/26 10:01:32;;;;;;;3.60;2.50;;;23.50;69.30;;;;;;5103490;28;20454;-72
2022/10/26 10:04:16;;;;;;;1.97;1.87;;;23.50;69.20;;;;;;5096475;28;20448;-71
2022/10/26 10:06:46;;;;;;;2.60;2.33;;;23.50;69.20;;;;;;5094156;28;20483;-71
2022/10/26 10:09:15;;;;;;;2.80;2.50;;;23.60;69.10;;;;;;5097834;28;20463;-71
2022/10/26 10:11:53;;;;;;;2.30;2.10;;;23.60;69.10;;;;;;5095960;28;20458;-70
2022/10/26 10:14:25;;;;;;;2.43;2.20;;;23.60;69.10;;;;;;5101473;28;20490;-70
2022/10/26 10:16:55;;;;;;;2.40;2.20;;;23.60;69.10;;;;;;5099049;28;20478;-70
2022/10/26 10:19:26;;;;;;;3.60;2.40;;;23.60;69.00;;;;;;5111064;27;20457;-70
2022/10/26 10:21:57;;;;;;;3.10;2.80;;;23.70;69.00;;;;;;5094409;28;20444;-71
2022/10/26 10:24:28;;;;;;;3.10;2.80;;;23.70;69.10;;;;;;5100861;28;20456;-71
2022/10/26 10:26:59;;;;;;;3.73;2.93;;;23.70;69.10;;;;;;5114160;28;20445;-70
2022/10/26 10:29:29;;;;;;;2.57;2.37;;;23.80;68.90;;;;;;5106133;28;20452;-70
2022/10/26 10:31:59;;;;;;;2.83;2.60;;;23.80;69.00;;;;;;5112227;28;20463;-71
2022/10/26 10:34:30;;;;;;;3.50;2.97;;;23.80;68.70;;;;;;5095789;28;20544;-71
2022/10/26 10:36:59;;;;;;;2.90;2.70;;;23.90;68.80;;;;;;5105771;28;20477;-71
2022/10/26 10:39:39;;;;;;;3.10;2.63;;;23.90;68.60;;;;;;5100295;28;20458;-71
2022/10/26 10:42:18;;;;;;;2.70;2.50;;;23.90;68.60;;;;;;5103344;28;20461;-71
2022/10/26 10:44:52;;;;;;;3.57;2.70;;;23.90;68.50;;;;;;5102869;28;20493;-71
2022/10/26 10:47:25;;;;;;;4.43;2.80;;;23.90;68.30;;;;;;5096207;28;20966;-70
2022/10/26 10:50:00;;;;;;;3.50;2.67;;;24.00;68.20;;;;;;5097531;28;20482;-76
2022/10/26 10:52:31;;;;;;;2.07;1.90;;;24.00;68.30;;;;;;5092296;28;20770;-77
2022/10/26 10:55:17;;;;;;;4.90;2.30;;;23.90;68.60;;;;;;5107191;28;20452;-77
2022/10/26 10:58:01;;;;;;;2.60;2.50;;;23.90;68.80;;;;;;5093739;28;20456;-77
2022/10/26 11:00:34;;;;;;;6.60;2.50;;;23.90;68.90;;;;;;5095276;28;20587;-80
2022/10/26 11:03:24;;;;;;;2.20;2.10;;;23.90;69.10;;;;;;5098873;28;20538;-77
2022/10/26 11:06:04;;;;;;;2.70;2.47;;;23.90;69.30;;;;;;5096706;28;20511;-77
2022/10/26 11:08:38;;;;;;;3.80;2.47;;;23.90;69.30;;;;;;5097656;28;20459;-74
2022/10/26 11:11:11;;;;;;;2.90;2.70;;;23.90;69.80;;;;;;5100640;28;20947;-74
2022/10/26 11:13:46;;;;;;;2.60;2.40;;;23.90;69.50;;;;;;5099551;28;20485;-74
2022/10/26 11:16:20;;;;;;;2.33;2.20;;;24.00;69.40;;;;;;5099439;28;21006;-76
2022/10/26 11:18:53;;;;;;;4.40;1.90;;;24.00;69.30;;;;;;5100806;28;20467;-78
2022/10/26 11:21:27;;;;;;;4.30;2.03;;;24.00;69.30;;;;;;5099828;28;20538;-76
2022/10/26 11:24:09;;;;;;;3.33;2.10;;;24.10;69.30;;;;;;5099595;28;20464;-77
2022/10/26 11:26:43;;;;;;;2.40;2.20;;;24.10;69.30;;;;;;5099450;28;20936;-80
2022/10/26 11:29:23;;;;;;;2.43;2.23;;;24.10;69.30;;;;;;5095034;28;20465;-78
2022/10/26 11:31:58;;;;;;;2.60;2.17;;;24.20;69.20;;;;;;5096136;28;20477;-79
2022/10/26 11:34:33;;;;;;;4.60;2.33;;;24.20;69.20;;;;;;5099763;28;20461;-81
2022/10/26 11:37:09;;;;;;;3.63;2.30;;;24.20;69.30;;;;;;5097607;28;20473;-82
2022/10/26 11:39:44;;;;;;;3.90;2.50;;;24.30;69.20;;;;;;5095343;28;20469;-78
2022/10/26 11:42:24;;;;;;;2.63;2.43;;;24.40;69.10;;;;;;5098560;28;20446;-81
2022/10/26 11:44:57;;;;;;;3.47;2.50;;;24.60;68.60;;;;;;5094418;28;20490;-79
2022/10/26 11:47:35;;;;;;;2.83;2.03;;;24.80;68.00;;;;;;5093483;28;20827;-78
2022/10/26 11:50:11;;;;;;;2.97;2.07;;;24.90;67.70;;;;;;5099961;28;20507;-79
2022/10/26 11:52:49;;;;;;;2.70;2.20;;;25.00;67.60;;;;;;5094377;28;20497;-82
2022/10/26 11:55:19;;;;;;;2.57;1.50;;;25.20;67.30;;;;;;5094383;28;20450;-81
2022/10/26 11:57:48;;;;;;;2.93;2.63;;;25.30;66.90;;;;;;5102131;28;20481;-81
2022/10/26 12:00:20;;;;;;;2.17;2.07;;;25.50;66.60;;;;;;5093883;28;20440;-80
2022/10/26 12:02:55;;;;;;;3.00;1.90;;;25.60;66.40;;;;;;5094986;28;20456;-80
2022/10/26 12:05:27;;;;;;;2.97;2.40;;;25.70;66.10;;;;;;5096082;28;20451;-79
2022/10/26 12:07:59;;;;;;;2.90;2.20;;;25.80;65.80;;;;;;5097227;28;20453;-81
2022/10/26 12:10:32;;;;;;;2.73;1.87;;;25.90;65.70;;;;;;5092340;28;20452;-81
2022/10/26 12:13:11;;;;;;;2.00;1.90;;;25.80;65.60;;;;;;5095102;28;21299;-82
2022/10/26 12:15:42;;;;;;;2.57;1.70;;;25.80;65.80;;;;;;5093946;28;20456;-81
2022/10/26 12:18:39;;;;;;;2.90;2.03;;;25.90;65.80;;;;;;5096377;28;20479;-81
2022/10/26 12:21:27;;;;;;;3.20;1.80;;;26.00;65.60;;;;;;5101887;28;20453;-80
2022/10/26 12:23:58;;;;;;;2.13;1.90;;;26.10;65.40;;;;;;5093548;28;20536;-80
2022/10/26 12:26:51;;;;;;;5.00;2.50;;;26.20;65.20;;;;;;5097336;28;20540;-79
2022/10/26 12:29:38;;;;;;;2.10;1.90;;;26.30;65.00;;;;;;5102475;28;20537;-81
2022/10/26 12:32:47;;;;;;;3.87;2.00;;;26.40;64.80;;;;;;5100165;28;20441;-82
2022/10/26 12:35:38;;;;;;;1.57;1.30;;;26.40;64.70;;;;;;5098326;28;20451;-81
2022/10/26 12:38:47;;;;;;;1.80;1.70;;;26.30;64.90;;;;;;5094211;28;20472;-81
2022/10/26 12:41:25;;;;;;;3.47;1.87;;;26.20;65.10;;;;;;5095351;28;20534;-80
2022/10/26 12:43:58;;;;;;;2.80;2.13;;;26.10;65.50;;;;;;5093834;28;20435;-82
2022/10/26 12:46:42;;;;;;;1.70;1.60;;;26.20;65.40;;;;;;5092778;28;20448;-81
2022/10/26 12:49:57;;;;;;;3.00;1.90;;;26.30;65.20;;;;;;5099566;28;20462;-77
2022/10/26 12:52:47;;;;;;;3.33;2.33;;;26.40;65.10;;;;;;5101209;28;20466;-76
2022/10/26 12:55:46;;;;;;;8.03;2.03;;;26.40;64.80;;;;;;5100909;28;20499;-78
2022/10/26 12:58:33;;;;;;;3.60;2.27;;;26.30;64.60;;;;;;5100441;28;20466;-78
2022/10/26 13:01:24;;;;;;;2.90;2.13;;;26.20;64.90;;;;;;5095089;28;20491;-78
2022/10/26 13:04:05;;;;;;;2.30;2.07;;;26.10;65.10;;;;;;5098744;28;20456;-80
2022/10/26 13:06:47;;;;;;;2.20;2.10;;;25.90;65.30;;;;;;5098395;28;20549;-79
2022/10/26 13:09:21;;;;;;;2.63;1.80;;;25.80;65.60;;;;;;5092222;28;20456;-76
2022/10/26 13:11:52;;;;;;;3.80;2.77;;;25.70;65.70;;;;;;5095697;28;20457;-79
2022/10/26 13:14:23;;;;;;;6.10;2.47;;;25.70;65.90;;;;;;5094932;28;20496;-77
2022/10/26 13:16:53;;;;;;;2.20;2.10;;;25.60;66.10;;;;;;5095040;28;20984;-78
2022/10/26 13:19:26;;;;;;;2.50;2.10;;;25.60;66.30;;;;;;5091861;28;20455;-77